Time;durP1;ratioP1;P1;durP2;ratioP2;P2;SDS_P1;SDS_P2;PMS_P1;PMS_P2;Temp;Humidity;BMP_temperature;BMP_pressure;BME280_temperature;BME280_humidity;BME280_pressure;Samples;Min_cycle;Max_cycle;Signal;HPM_P1;HPM_P2
2023/04/07 00:01:49;;;;;;;;;;;;;;;;;;5051338;28;20007;-56
2023/04/07 00:04:15;;;;;;;;;;;;;;;;;;5051183;28;19927;-55
2023/04/07 00:06:42;;;;;;;;;;;;;;;;;;5050736;28;19927;-55
2023/04/07 00:09:08;;;;;;;;;;;;;;;;;;5050999;28;19921;-55
2023/04/07 00:11:34;;;;;;;;;;;;;;;;;;5051075;28;19921;-57
2023/04/07 00:14:00;;;;;;;;;;;;;;;;;;5050501;28;19921;-57
2023/04/07 00:16:26;;;;;;;;;;;;;;;;;;5051208;28;19917;-57
2023/04/07 00:18:52;;;;;;;;;;;;;;;;;;5051293;28;19962;-56
2023/04/07 00:21:18;;;;;;;;;;;;;;;;;;5050343;28;20337;-56
2023/04/07 00:23:45;;;;;;;;;;;;;;;;;;5050773;28;19928;-56
2023/04/07 00:26:11;;;;;;;;;;;;;;;;;;5050830;28;19923;-57
2023/04/07 00:28:37;;;;;;;;;;;;;;;;;;5050428;28;19921;-56
2023/04/07 00:31:02;;;;;;;;;;;;;;;;;;5050879;28;20017;-57
2023/04/07 00:33:29;;;;;;;;;;;;;;;;;;5051041;28;19920;-55
2023/04/07 00:35:57;;;;;;;;;;;;;;;;;;5050425;28;19944;-55
2023/04/07 00:38:23;;;;;;;;;;;;;;;;;;5050935;28;19920;-57
2023/04/07 00:40:49;;;;;;;;;;;;;;;;;;5051055;28;20022;-57
2023/04/07 00:43:15;;;;;;;;;;;;;;;;;;5049935;28;19916;-57
2023/04/07 00:45:41;;;;;;;;;;;;;;;;;;5033020;28;19920;-56
2023/04/07 00:48:07;;;;;;;;;;;;;;;;;;5050509;28;19920;-57
2023/04/07 00:50:33;;;;;;;;;;;;;;;;;;5054166;28;19917;-57
2023/04/07 00:53:01;;;;;;;;;;;;;;;;;;5054698;28;19917;-56
2023/04/07 00:55:26;;;;;;;;;;;;;;;;;;5054710;28;20011;-56
2023/04/07 00:57:52;;;;;;;;;;;;;;;;;;5054163;28;19999;-55
2023/04/07 01:00:18;;;;;;;;;;;;;;;;;;5054472;28;19960;-56
2023/04/07 01:02:45;;;;;;;;;;;;;;;;;;5054162;28;19925;-56
2023/04/07 01:05:11;;;;;;;;;;;;;;;;;;5053538;28;19917;-56
2023/04/07 01:07:37;;;;;;;;;;;;;;;;;;5054286;28;19924;-56
2023/04/07 01:10:03;;;;;;;;;;;;;;;;;;5054231;28;19916;-56
2023/04/07 01:12:29;;;;;;;;;;;;;;;;;;5053811;28;19917;-57
2023/04/07 01:14:54;;;;;;;;;;;;;;;;;;5053946;28;19983;-56
2023/04/07 01:17:20;;;;;;;;;;;;;;;;;;5054290;28;19928;-57
2023/04/07 01:19:46;;;;;;;;;;;;;;;;;;5053646;28;19920;-56
2023/04/07 01:22:12;;;;;;;;;;;;;;;;;;5054083;28;19935;-56
2023/04/07 01:24:38;;;;;;;;;;;;;;;;;;5054051;28;19928;-55
2023/04/07 01:27:04;;;;;;;;;;;;;;;;;;5053430;28;19920;-56
2023/04/07 01:29:30;;;;;;;;;;;;;;;;;;5054018;28;19924;-56
2023/04/07 01:31:56;;;;;;;;;;;;;;;;;;5053817;28;19920;-56
2023/04/07 01:34:22;;;;;;;;;;;;;;;;;;5053195;28;19916;-56
2023/04/07 01:36:48;;;;;;;;;;;;;;;;;;5053816;28;19943;-56
2023/04/07 01:39:14;;;;;;;;;;;;;;;;;;5053737;28;19920;-55
2023/04/07 01:41:40;;;;;;;;;;;;;;;;;;5052979;28;20040;-57
2023/04/07 01:44:06;;;;;;;;;;;;;;;;;;5053635;28;20007;-57
2023/04/07 01:46:32;;;;;;;;;;;;;;;;;;5053686;28;20011;-57
2023/04/07 01:48:58;;;;;;;;;;;;;;;;;;5053119;28;19920;-56
2023/04/07 01:51:25;;;;;;;;;;;;;;;;;;5053461;28;19920;-56
2023/04/07 01:53:51;;;;;;;;;;;;;;;;;;5053457;28;19970;-56
2023/04/07 01:56:17;;;;;;;;;;;;;;;;;;5052858;28;20363;-56
2023/04/07 01:58:43;;;;;;;;;;;;;;;;;;5053407;28;19917;-56
2023/04/07 02:01:09;;;;;;;;;;;;;;;;;;5052832;28;19916;-56
2023/04/07 02:03:35;;;;;;;;;;;;;;;;;;5052740;28;19968;-56
2023/04/07 02:06:01;;;;;;;;;;;;;;;;;;5053338;28;19968;-56
2023/04/07 02:08:27;;;;;;;;;;;;;;;;;;5053334;28;20035;-56
2023/04/07 02:10:53;;;;;;;;;;;;;;;;;;5052563;28;19951;-57
2023/04/07 02:13:19;;;;;;;;;;;;;;;;;;5052966;28;19917;-57
2023/04/07 02:15:45;;;;;;;;;;;;;;;;;;5053105;28;19950;-57
2023/04/07 02:18:11;;;;;;;;;;;;;;;;;;5052490;28;19917;-57
2023/04/07 02:20:37;;;;;;;;;;;;;;;;;;5053087;28;19968;-56
2023/04/07 02:23:03;;;;;;;;;;;;;;;;;;5052918;28;19975;-54
2023/04/07 02:25:29;;;;;;;;;;;;;;;;;;5052484;28;19928;-56
2023/04/07 02:27:55;;;;;;;;;;;;;;;;;;5052573;28;19920;-56
2023/04/07 02:30:21;;;;;;;;;;;;;;;;;;5052724;28;19917;-55
2023/04/07 02:32:47;;;;;;;;;;;;;;;;;;5052817;28;19924;-56
2023/04/07 02:35:13;;;;;;;;;;;;;;;;;;5052208;28;19938;-55
2023/04/07 02:37:39;;;;;;;;;;;;;;;;;;5052703;28;19958;-56
2023/04/07 02:40:05;;;;;;;;;;;;;;;;;;5052731;28;19920;-56
2023/04/07 02:42:31;;;;;;;;;;;;;;;;;;5052102;28;20275;-57
2023/04/07 02:44:57;;;;;;;;;;;;;;;;;;5052665;28;19933;-57
2023/04/07 02:47:23;;;;;;;;;;;;;;;;;;5052472;28;20421;-55
2023/04/07 02:49:49;;;;;;;;;;;;;;;;;;5052015;28;19940;-56
2023/04/07 02:52:16;;;;;;;;;;;;;;;;;;5052384;28;19916;-56
2023/04/07 02:54:42;;;;;;;;;;;;;;;;;;5052631;28;19920;-56
2023/04/07 02:57:07;;;;;;;;;;;;;;;;;;5051782;28;19923;-55
2023/04/07 02:59:33;;;;;;;;;;;;;;;;;;5052137;28;19939;-56
2023/04/07 03:01:59;;;;;;;;;;;;;;;;;;5052310;28;20007;-56
2023/04/07 03:04:26;;;;;;;;;;;;;;;;;;5051514;28;19944;-56
2023/04/07 03:06:52;;;;;;;;;;;;;;;;;;5051786;28;19920;-56
2023/04/07 03:09:18;;;;;;;;;;;;;;;;;;5052045;28;19932;-56
2023/04/07 03:11:44;;;;;;;;;;;;;;;;;;5050628;28;19940;-57
2023/04/07 03:14:10;;;;;;;;;;;;;;;;;;5052038;28;19921;-57
2023/04/07 03:16:36;;;;;;;;;;;;;;;;;;5051922;28;19917;-57
2023/04/07 03:19:01;;;;;;;;;;;;;;;;;;5051366;28;19986;-56
2023/04/07 03:21:28;;;;;;;;;;;;;;;;;;5051743;28;19916;-56
2023/04/07 03:23:54;;;;;;;;;;;;;;;;;;5051333;28;19925;-55
2023/04/07 03:26:20;;;;;;;;;;;;;;;;;;5050763;28;19920;-56
2023/04/07 03:28:46;;;;;;;;;;;;;;;;;;5051765;28;20276;-56
2023/04/07 03:31:12;;;;;;;;;;;;;;;;;;5051680;28;19921;-54
2023/04/07 03:33:38;;;;;;;;;;;;;;;;;;5051171;28;19916;-56
2023/04/07 03:36:04;;;;;;;;;;;;;;;;;;5051712;28;19921;-56
2023/04/07 03:38:30;;;;;;;;;;;;;;;;;;5051679;28;19971;-55
2023/04/07 03:40:56;;;;;;;;;;;;;;;;;;5050578;28;19970;-57
2023/04/07 03:43:22;;;;;;;;;;;;;;;;;;5051450;28;19916;-57
2023/04/07 03:45:48;;;;;;;;;;;;;;;;;;5051540;28;19920;-57
2023/04/07 03:48:14;;;;;;;;;;;;;;;;;;5050642;28;19921;-56
2023/04/07 03:50:40;;;;;;;;;;;;;;;;;;5033544;28;19970;-56
2023/04/07 03:53:06;;;;;;;;;;;;;;;;;;5051145;28;19917;-56
2023/04/07 03:55:32;;;;;;;;;;;;;;;;;;5050833;28;19920;-56
2023/04/07 03:57:58;;;;;;;;;;;;;;;;;;5051276;28;20004;-56
2023/04/07 04:00:24;;;;;;;;;;;;;;;;;;5051282;28;19921;-56
2023/04/07 04:02:50;;;;;;;;;;;;;;;;;;5050768;28;19959;-56
2023/04/07 04:05:16;;;;;;;;;;;;;;;;;;5050875;28;19916;-55
2023/04/07 04:07:42;;;;;;;;;;;;;;;;;;5051144;28;19967;-54
2023/04/07 04:10:08;;;;;;;;;;;;;;;;;;5050379;28;19917;-57
2023/04/07 04:12:34;;;;;;;;;;;;;;;;;;5051237;28;20027;-57
2023/04/07 04:15:00;;;;;;;;;;;;;;;;;;5051346;28;19916;-57
2023/04/07 04:17:25;;;;;;;;;;;;;;;;;;5050758;28;19955;-57
2023/04/07 04:19:53;;;;;;;;;;;;;;;;;;5051178;28;19981;-56
2023/04/07 04:22:19;;;;;;;;;;;;;;;;;;5051037;28;19921;-55
2023/04/07 04:24:44;;;;;;;;;;;;;;;;;;5053182;28;19932;-56
2023/04/07 04:27:10;;;;;;;;;;;;;;;;;;5055193;28;19920;-55
2023/04/07 04:29:36;;;;;;;;;;;;;;;;;;5055123;28;19943;-56
2023/04/07 04:32:02;;;;;;;;;;;;;;;;;;5054672;28;19923;-56
2023/04/07 04:34:28;;;;;;;;;;;;;;;;;;5055232;28;19916;-57
2023/04/07 04:36:54;;;;;;;;;;;;;;;;;;5055313;28;19920;-56
2023/04/07 04:39:20;;;;;;;;;;;;;;;;;;5054508;28;19921;-56
2023/04/07 04:41:46;;;;;;;;;;;;;;;;;;5055304;28;20360;-57
2023/04/07 04:44:12;;;;;;;;;;;;;;;;;;5055163;28;19995;-57
2023/04/07 04:46:38;;;;;;;;;;;;;;;;;;5054654;28;20007;-57
2023/04/07 04:49:05;;;;;;;;;;;;;;;;;;5054988;28;19970;-57
2023/04/07 04:51:31;;;;;;;;;;;;;;;;;;5055094;28;20007;-56
2023/04/07 04:53:57;;;;;;;;;;;;;;;;;;5054488;28;20004;-56
2023/04/07 04:56:23;;;;;;;;;;;;;;;;;;5055084;28;20015;-57
2023/04/07 04:58:49;;;;;;;;;;;;;;;;;;5051093;28;19924;-56
2023/04/07 05:01:15;;;;;;;;;;;;;;;;;;5054005;28;19978;-56
2023/04/07 05:03:41;;;;;;;;;;;;;;;;;;5054604;28;19917;-53
2023/04/07 05:06:07;;;;;;;;;;;;;;;;;;5054900;28;19916;-56
2023/04/07 05:08:33;;;;;;;;;;;;;;;;;;5053956;28;19951;-56
2023/04/07 05:10:59;;;;;;;;;;;;;;;;;;5054476;28;19958;-57
2023/04/07 05:13:25;;;;;;;;;;;;;;;;;;5054554;28;19932;-57
2023/04/07 05:15:51;;;;;;;;;;;;;;;;;;5053975;28;19917;-57
2023/04/07 05:18:17;;;;;;;;;;;;;;;;;;5054572;28;19924;-55
2023/04/07 05:20:43;;;;;;;;;;;;;;;;;;5054208;28;19917;-52
2023/04/07 05:23:08;;;;;;;;;;;;;;;;;;5053567;28;19925;-57
2023/04/07 05:25:35;;;;;;;;;;;;;;;;;;5054109;28;19928;-57
2023/04/07 05:28:01;;;;;;;;;;;;;;;;;;5054083;28;19924;-56
2023/04/07 05:30:27;;;;;;;;;;;;;;;;;;5054273;28;20378;-56
2023/04/07 05:32:53;;;;;;;;;;;;;;;;;;5052101;28;19924;-57
2023/04/07 05:35:19;;;;;;;;;;;;;;;;;;5052692;28;19916;-56
2023/04/07 05:37:45;;;;;;;;;;;;;;;;;;5053602;28;20610;-55
2023/04/07 05:40:11;;;;;;;;;;;;;;;;;;5053034;28;19921;-57
2023/04/07 05:42:37;;;;;;;;;;;;;;;;;;5053326;28;19920;-57
2023/04/07 05:45:03;;;;;;;;;;;;;;;;;;5053510;28;19999;-57
2023/04/07 05:47:29;;;;;;;;;;;;;;;;;;5052421;28;19917;-55
2023/04/07 05:49:55;;;;;;;;;;;;;;;;;;5053035;28;19986;-54
2023/04/07 05:52:21;;;;;;;;;;;;;;;;;;5053103;28;19916;-55
2023/04/07 05:54:47;;;;;;;;;;;;;;;;;;5052509;28;19927;-54
2023/04/07 05:57:13;;;;;;;;;;;;;;;;;;5052901;28;19924;-55
2023/04/07 05:59:39;;;;;;;;;;;;;;;;;;5052823;28;19920;-55
2023/04/07 06:02:05;;;;;;;;;;;;;;;;;;5052337;28;19924;-59
2023/04/07 06:04:32;;;;;;;;;;;;;;;;;;5052871;28;19917;-59
2023/04/07 06:06:58;;;;;;;;;;;;;;;;;;5052965;28;19923;-57
2023/04/07 06:09:24;;;;;;;;;;;;;;;;;;5052473;28;20423;-58
2023/04/07 06:11:50;;;;;;;;;;;;;;;;;;5052658;28;19917;-57
2023/04/07 06:14:16;;;;;;;;;;;;;;;;;;5053356;28;19923;-57
2023/04/07 06:16:42;;;;;;;;;;;;;;;;;;5051850;28;19951;-56
2023/04/07 06:19:08;;;;;;;;;;;;;;;;;;5052713;28;19999;-57
2023/04/07 06:21:34;;;;;;;;;;;;;;;;;;5052666;28;19942;-57
2023/04/07 06:24:00;;;;;;;;;;;;;;;;;;5051951;28;19983;-58
2023/04/07 06:26:27;;;;;;;;;;;;;;;;;;5052754;28;20027;-57
2023/04/07 06:28:53;;;;;;;;;;;;;;;;;;5052552;28;20388;-59
2023/04/07 06:31:19;;;;;;;;;;;;;;;;;;5052185;28;19916;-58
2023/04/07 06:33:45;;;;;;;;;;;;;;;;;;5052459;28;20078;-57
2023/04/07 06:36:11;;;;;;;;;;;;;;;;;;5051849;28;19925;-59
2023/04/07 06:38:37;;;;;;;;;;;;;;;;;;5051635;28;19920;-59
2023/04/07 06:41:03;;;;;;;;;;;;;;;;;;5052490;28;19940;-59
2023/04/07 06:43:29;;;;;;;;;;;;;;;;;;5052151;28;19940;-59
2023/04/07 06:45:55;;;;;;;;;;;;;;;;;;5051281;28;19928;-59
2023/04/07 06:48:21;;;;;;;;;;;;;;;;;;5051945;28;19921;-56
2023/04/07 06:50:47;;;;;;;;;;;;;;;;;;5052325;28;19920;-58
2023/04/07 06:53:13;;;;;;;;;;;;;;;;;;5051663;28;20614;-57
2023/04/07 06:55:39;;;;;;;;;;;;;;;;;;5051996;28;20436;-57
2023/04/07 06:58:05;;;;;;;;;;;;;;;;;;5052598;28;19920;-58
2023/04/07 07:00:31;;;;;;;;;;;;;;;;;;5051442;28;20271;-58
2023/04/07 07:02:57;;;;;;;;;;;;;;;;;;5052170;28;19923;-58
2023/04/07 07:05:23;;;;;;;;;;;;;;;;;;5035834;28;19923;-58
2023/04/07 07:07:50;;;;;;;;;;;;;;;;;;5051212;28;19920;-58
2023/04/07 07:10:16;;;;;;;;;;;;;;;;;;5052091;28;19927;-58
2023/04/07 07:12:42;;;;;;;;;;;;;;;;;;5051804;28;19939;-58
2023/04/07 07:15:08;;;;;;;;;;;;;;;;;;5051231;28;19916;-58
2023/04/07 07:17:34;;;;;;;;;;;;;;;;;;5033885;28;20052;-58
2023/04/07 07:20:00;;;;;;;;;;;;;;;;;;5051859;28;19917;-58
2023/04/07 07:22:25;;;;;;;;;;;;;;;;;;5030181;28;19952;-56
2023/04/07 07:24:51;;;;;;;;;;;;;;;;;;5031335;28;19922;-57
2023/04/07 07:27:17;;;;;;;;;;;;;;;;;;5031896;28;20007;-58
2023/04/07 07:29:43;;;;;;;;;;;;;;;;;;5031059;28;19992;-57
2023/04/07 07:32:09;;;;;;;;;;;;;;;;;;5031209;28;19948;-57
2023/04/07 07:34:35;;;;;;;;;;;;;;;;;;5031703;28;19920;-58
2023/04/07 07:37:01;;;;;;;;;;;;;;;;;;5030544;28;19917;-58
2023/04/07 07:39:28;;;;;;;;;;;;;;;;;;5030889;28;19994;-58
2023/04/07 07:41:54;;;;;;;;;;;;;;;;;;5031177;28;19957;-58
2023/04/07 07:44:21;;;;;;;;;;;;;;;;;;5030245;28;19967;-58
2023/04/07 07:46:47;;;;;;;;;;;;;;;;;;5031662;28;19925;-57
2023/04/07 07:49:13;;;;;;;;;;;;;;;;;;5031133;28;19931;-56
2023/04/07 07:51:39;;;;;;;;;;;;;;;;;;5029295;28;19921;-57
2023/04/07 07:54:05;;;;;;;;;;;;;;;;;;5031402;28;19921;-58
2023/04/07 07:56:31;;;;;;;;;;;;;;;;;;5031194;28;19967;-57
2023/04/07 07:58:58;;;;;;;;;;;;;;;;;;5030385;28;20372;-58
2023/04/07 08:01:24;;;;;;;;;;;;;;;;;;5029747;28;19973;-59
2023/04/07 08:03:50;;;;;;;;;;;;;;;;;;5031369;28;20287;-59
2023/04/07 08:06:16;;;;;;;;;;;;;;;;;;5030463;28;19943;-59
2023/04/07 08:08:42;;;;;;;;;;;;;;;;;;5027692;28;19921;-58
2023/04/07 08:11:08;;;;;;;;;;;;;;;;;;5030457;28;19924;-58
2023/04/07 08:13:34;;;;;;;;;;;;;;;;;;5029404;28;19920;-57
2023/04/07 08:16:00;;;;;;;;;;;;;;;;;;5030904;28;19927;-58
2023/04/07 08:18:26;;;;;;;;;;;;;;;;;;5029554;28;19917;-59
2023/04/07 08:20:52;;;;;;;;;;;;;;;;;;5028917;28;19925;-58
2023/04/07 08:23:18;;;;;;;;;;;;;;;;;;5017221;28;20296;-59
2023/04/07 08:25:44;;;;;;;;;;;;;;;;;;5010034;28;19925;-59
2023/04/07 08:28:10;;;;;;;;;;;;;;;;;;5009751;28;19968;-59
2023/04/07 08:30:36;;;;;;;;;;;;;;;;;;5004719;28;19934;-59
2023/04/07 08:33:02;;;;;;;;;;;;;;;;;;5001644;28;19921;-59
2023/04/07 08:35:28;;;;;;;;;;;;;;;;;;5005668;28;19967;-59
2023/04/07 08:37:54;;;;;;;;;;;;;;;;;;4990611;28;19928;-58
2023/04/07 08:40:20;;;;;;;;;;;;;;;;;;5005080;28;19927;-57
2023/04/07 08:42:47;;;;;;;;;;;;;;;;;;5005832;28;20463;-56
2023/04/07 08:45:13;;;;;;;;;;;;;;;;;;5008876;28;20625;-57
2023/04/07 08:47:40;;;;;;;;;;;;;;;;;;5008733;28;19921;-58
2023/04/07 08:50:06;;;;;;;;;;;;;;;;;;4999222;28;19921;-58
2023/04/07 08:52:33;;;;;;;;;;;;;;;;;;5020864;28;20372;-58
2023/04/07 08:55:01;;;;;;;;;;;;;;;;;;5010366;28;19921;-58
2023/04/07 08:57:27;;;;;;;;;;;;;;;;;;5010062;28;19957;-58
2023/04/07 08:59:53;;;;;;;;;;;;;;;;;;5001769;28;19953;-59
2023/04/07 09:02:19;;;;;;;;;;;;;;;;;;5010552;28;19925;-59
2023/04/07 09:04:45;;;;;;;;;;;;;;;;;;5009838;28;19921;-58
2023/04/07 09:07:11;;;;;;;;;;;;;;;;;;5010393;28;19921;-57
2023/04/07 09:09:37;;;;;;;;;;;;;;;;;;5009433;28;19928;-59
2023/04/07 09:12:03;;;;;;;;;;;;;;;;;;5013443;28;19925;-58
2023/04/07 09:14:30;;;;;;;;;;;;;;;;;;5013635;28;19917;-58
2023/04/07 09:16:56;;;;;;;;;;;;;;;;;;5011951;28;19923;-60
2023/04/07 09:19:22;;;;;;;;;;;;;;;;;;5010937;28;19918;-60
2023/04/07 09:21:48;;;;;;;;;;;;;;;;;;5011545;28;19968;-60
2023/04/07 09:24:14;;;;;;;;;;;;;;;;;;5049467;28;19974;-60
2023/04/07 09:26:40;;;;;;;;;;;;;;;;;;5053172;28;19924;-59
2023/04/07 09:29:06;;;;;;;;;;;;;;;;;;5049495;28;19920;-57
2023/04/07 09:31:33;;;;;;;;;;;;;;;;;;5052800;28;19939;-59
2023/04/07 09:34:00;;;;;;;;;;;;;;;;;;5052589;28;19968;-59
2023/04/07 09:36:26;;;;;;;;;;;;;;;;;;5052453;28;20480;-57
2023/04/07 09:38:52;;;;;;;;;;;;;;;;;;5051960;28;20003;-59
2023/04/07 09:41:18;;;;;;;;;;;;;;;;;;5051738;28;20000;-57
2023/04/07 09:43:44;;;;;;;;;;;;;;;;;;5044067;28;19928;-58
2023/04/07 09:46:10;;;;;;;;;;;;;;;;;;5052981;28;19921;-59
2023/04/07 09:48:36;;;;;;;;;;;;;;;;;;5053203;28;19921;-58
2023/04/07 09:51:02;;;;;;;;;;;;;;;;;;5047649;28;19921;-59
2023/04/07 09:53:28;;;;;;;;;;;;;;;;;;5051220;28;20232;-58
2023/04/07 09:55:54;;;;;;;;;;;;;;;;;;5050116;28;19927;-58
2023/04/07 09:58:20;;;;;;;;;;;;;;;;;;5052073;28;20031;-58
2023/04/07 10:00:46;;;;;;;;;;;;;;;;;;5051371;28;19921;-59
2023/04/07 10:03:12;;;;;;;;;;;;;;;;;;5047154;28;20365;-59
2023/04/07 10:05:38;;;;;;;;;;;;;;;;;;5051495;28;19921;-59
2023/04/07 10:08:04;;;;;;;;;;;;;;;;;;5051589;28;19929;-59
2023/04/07 10:10:31;;;;;;;;;;;;;;;;;;5050135;28;19924;-59
2023/04/07 10:12:57;;;;;;;;;;;;;;;;;;5049257;28;19963;-59
2023/04/07 10:15:23;;;;;;;;;;;;;;;;;;5056318;28;19923;-58
2023/04/07 10:17:50;;;;;;;;;;;;;;;;;;5051769;28;20346;-58
2023/04/07 10:20:16;;;;;;;;;;;;;;;;;;5047858;28;19917;-58
2023/04/07 10:22:42;;;;;;;;;;;;;;;;;;5051635;28;19950;-58
2023/04/07 10:25:09;;;;;;;;;;;;;;;;;;5046624;28;19924;-57
2023/04/07 10:27:35;;;;;;;;;;;;;;;;;;5048309;28;19920;-59
2023/04/07 10:30:03;;;;;;;;;;;;;;;;;;5044963;28;20386;-60
2023/04/07 10:32:29;;;;;;;;;;;;;;;;;;5046460;28;19940;-56
2023/04/07 10:34:56;;;;;;;;;;;;;;;;;;5050401;28;20381;-56
2023/04/07 10:37:22;;;;;;;;;;;;;;;;;;5051923;28;20446;-57
2023/04/07 10:39:48;;;;;;;;;;;;;;;;;;5051181;28;20003;-57
2023/04/07 10:42:14;;;;;;;;;;;;;;;;;;5051404;28;20047;-57
2023/04/07 10:44:43;;;;;;;;;;;;;;;;;;5051539;28;19995;-57
2023/04/07 10:47:09;;;;;;;;;;;;;;;;;;5051600;28;19948;-55
2023/04/07 10:49:35;;;;;;;;;;;;;;;;;;5050858;28;19947;-57
2023/04/07 10:52:01;;;;;;;;;;;;;;;;;;5051235;28;20017;-57
2023/04/07 10:54:27;;;;;;;;;;;;;;;;;;5051966;28;20015;-57
2023/04/07 10:56:53;;;;;;;;;;;;;;;;;;5050840;28;20368;-56
2023/04/07 10:59:26;;;;;;;;;;;;;;;;;;5051820;28;19917;-56
2023/04/07 11:01:52;;;;;;;;;;;;;;;;;;5051516;28;20424;-58
2023/04/07 11:04:18;;;;;;;;;;;;;;;;;;5050739;28;19999;-56
2023/04/07 11:06:44;;;;;;;;;;;;;;;;;;5051650;28;19917;-58
2023/04/07 11:09:10;;;;;;;;;;;;;;;;;;5051052;28;20043;-58
2023/04/07 11:11:38;;;;;;;;;;;;;;;;;;5050875;28;20387;-57
2023/04/07 11:14:04;;;;;;;;;;;;;;;;;;5040380;28;19959;-60
2023/04/07 11:16:30;;;;;;;;;;;;;;;;;;5047202;28;19967;-59
2023/04/07 11:18:56;;;;;;;;;;;;;;;;;;5050278;28;20286;-58
2023/04/07 11:21:22;;;;;;;;;;;;;;;;;;5050772;28;20060;-57
2023/04/07 11:23:48;;;;;;;;;;;;;;;;;;5048816;28;19935;-58
2023/04/07 11:26:14;;;;;;;;;;;;;;;;;;5048242;28;19975;-59
2023/04/07 11:28:40;;;;;;;;;;;;;;;;;;5049171;28;19932;-58
2023/04/07 11:31:06;;;;;;;;;;;;;;;;;;5048564;28;19917;-57
2023/04/07 11:33:35;;;;;;;;;;;;;;;;;;5048435;28;19943;-57
2023/04/07 11:36:02;;;;;;;;;;;;;;;;;;5041668;28;19921;-58
2023/04/07 11:38:28;;;;;;;;;;;;;;;;;;5049539;28;19923;-57
2023/04/07 11:40:54;;;;;;;;;;;;;;;;;;5047147;28;19921;-58
2023/04/07 11:43:20;;;;;;;;;;;;;;;;;;5046282;28;19920;-58
2023/04/07 11:45:46;;;;;;;;;;;;;;;;;;5051955;28;19973;-58
2023/04/07 11:48:12;;;;;;;;;;;;;;;;;;5044869;28;19925;-59
2023/04/07 11:50:38;;;;;;;;;;;;;;;;;;5050021;28;19916;-58
2023/04/07 11:53:04;;;;;;;;;;;;;;;;;;5049603;28;20354;-59
2023/04/07 11:55:30;;;;;;;;;;;;;;;;;;5048810;28;20020;-58
2023/04/07 11:57:57;;;;;;;;;;;;;;;;;;5049974;28;19921;-56
2023/04/07 12:00:23;;;;;;;;;;;;;;;;;;5049299;28;19952;-59
2023/04/07 12:02:48;;;;;;;;;;;;;;;;;;5048840;28;19942;-58
2023/04/07 12:05:14;;;;;;;;;;;;;;;;;;5049343;28;19928;-58
2023/04/07 12:07:40;;;;;;;;;;;;;;;;;;5049705;28;19917;-58
2023/04/07 12:10:06;;;;;;;;;;;;;;;;;;5049598;28;19998;-58
2023/04/07 12:12:32;;;;;;;;;;;;;;;;;;5049525;28;19917;-59
2023/04/07 12:14:58;;;;;;;;;;;;;;;;;;5049942;28;19921;-59
2023/04/07 12:17:25;;;;;;;;;;;;;;;;;;5050045;28;19924;-59
2023/04/07 12:19:51;;;;;;;;;;;;;;;;;;5049478;28;19917;-59
2023/04/07 12:22:17;;;;;;;;;;;;;;;;;;5045966;28;19921;-59
2023/04/07 12:24:43;;;;;;;;;;;;;;;;;;5049308;28;19978;-58
2023/04/07 12:27:09;;;;;;;;;;;;;;;;;;5049492;28;19966;-58
2023/04/07 12:29:37;;;;;;;;;;;;;;;;;;5049825;28;19924;-61
2023/04/07 12:32:03;;;;;;;;;;;;;;;;;;5047357;28;19924;-61
2023/04/07 12:34:29;;;;;;;;;;;;;;;;;;5040871;28;19920;-61
2023/04/07 12:36:55;;;;;;;;;;;;;;;;;;5048346;28;20022;-60
2023/04/07 12:39:21;;;;;;;;;;;;;;;;;;5049525;28;19956;-60
2023/04/07 12:41:50;;;;;;;;;;;;;;;;;;5030477;28;20385;-60
2023/04/07 12:44:15;;;;;;;;;;;;;;;;;;5046562;28;20322;-58
2023/04/07 12:46:42;;;;;;;;;;;;;;;;;;5032327;28;19921;-59
2023/04/07 12:49:08;;;;;;;;;;;;;;;;;;5052282;28;19991;-58
2023/04/07 12:51:34;;;;;;;;;;;;;;;;;;5050142;28;20294;-58
2023/04/07 12:54:00;;;;;;;;;;;;;;;;;;5045905;28;19979;-57
2023/04/07 12:56:27;;;;;;;;;;;;;;;;;;5044963;28;19920;-59
2023/04/07 12:58:53;;;;;;;;;;;;;;;;;;5051139;28;20015;-58
2023/04/07 13:01:19;;;;;;;;;;;;;;;;;;5050391;28;19928;-56
2023/04/07 13:03:45;;;;;;;;;;;;;;;;;;5052728;28;19921;-59
2023/04/07 13:06:11;;;;;;;;;;;;;;;;;;5053065;28;19924;-58
2023/04/07 13:08:37;;;;;;;;;;;;;;;;;;5052889;28;20271;-58
2023/04/07 13:11:03;;;;;;;;;;;;;;;;;;5051907;28;19917;-59
2023/04/07 13:13:29;;;;;;;;;;;;;;;;;;5051659;28;19921;-60
2023/04/07 13:15:55;;;;;;;;;;;;;;;;;;5053122;28;19931;-58
2023/04/07 13:18:21;;;;;;;;;;;;;;;;;;5053145;28;19917;-58
2023/04/07 13:20:47;;;;;;;;;;;;;;;;;;5052938;28;19989;-57
2023/04/07 13:23:13;;;;;;;;;;;;;;;;;;5053383;28;19947;-58
2023/04/07 13:25:40;;;;;;;;;;;;;;;;;;5052279;28;20019;-59
2023/04/07 13:28:06;;;;;;;;;;;;;;;;;;5053405;28;19925;-55
2023/04/07 13:30:32;;;;;;;;;;;;;;;;;;5053099;28;19920;-56
2023/04/07 13:32:58;;;;;;;;;;;;;;;;;;5053302;28;19956;-57
2023/04/07 13:35:24;;;;;;;;;;;;;;;;;;5053528;28;20029;-57
2023/04/07 13:37:50;;;;;;;;;;;;;;;;;;5053910;28;19921;-58
2023/04/07 13:40:16;;;;;;;;;;;;;;;;;;5053111;28;20267;-58
2023/04/07 13:42:42;;;;;;;;;;;;;;;;;;5053851;28;19921;-58
2023/04/07 13:45:08;;;;;;;;;;;;;;;;;;5053448;28;19917;-58
2023/04/07 13:47:34;;;;;;;;;;;;;;;;;;5044983;28;19923;-57
2023/04/07 13:50:00;;;;;;;;;;;;;;;;;;5053212;28;19925;-57
2023/04/07 13:52:26;;;;;;;;;;;;;;;;;;5053228;28;19921;-58
2023/04/07 13:54:52;;;;;;;;;;;;;;;;;;5052683;28;20354;-54
2023/04/07 13:57:19;;;;;;;;;;;;;;;;;;5052788;28;19917;-56
2023/04/07 13:59:46;;;;;;;;;;;;;;;;;;5053016;28;19920;-57
2023/04/07 14:02:12;;;;;;;;;;;;;;;;;;5052244;28;19924;-57
2023/04/07 14:04:38;;;;;;;;;;;;;;;;;;5052870;28;19955;-57
2023/04/07 14:07:04;;;;;;;;;;;;;;;;;;5035236;28;19921;-58
2023/04/07 14:09:30;;;;;;;;;;;;;;;;;;5051815;28;19921;-58
2023/04/07 14:11:56;;;;;;;;;;;;;;;;;;5052940;28;19987;-58
2023/04/07 14:14:23;;;;;;;;;;;;;;;;;;5053123;28;19916;-58
2023/04/07 14:16:52;;;;;;;;;;;;;;;;;;5052306;28;19916;-57
2023/04/07 14:19:18;;;;;;;;;;;;;;;;;;5052854;28;20336;-57
2023/04/07 14:21:44;;;;;;;;;;;;;;;;;;5052735;28;20011;-58
2023/04/07 14:24:10;;;;;;;;;;;;;;;;;;5051671;28;19990;-56
2023/04/07 14:26:36;;;;;;;;;;;;;;;;;;5052418;28;19920;-58
2023/04/07 14:29:02;;;;;;;;;;;;;;;;;;5052340;28;20295;-57
2023/04/07 14:31:28;;;;;;;;;;;;;;;;;;5051860;28;19978;-60
2023/04/07 14:33:54;;;;;;;;;;;;;;;;;;5034818;28;19917;-61
2023/04/07 14:36:20;;;;;;;;;;;;;;;;;;5052380;28;19944;-60
2023/04/07 14:38:46;;;;;;;;;;;;;;;;;;5051760;28;19928;-60
2023/04/07 14:41:12;;;;;;;;;;;;;;;;;;5052336;28;19921;-60
2023/04/07 14:43:38;;;;;;;;;;;;;;;;;;5052229;28;19921;-60
2023/04/07 14:46:04;;;;;;;;;;;;;;;;;;5051585;28;19923;-60
2023/04/07 14:48:31;;;;;;;;;;;;;;;;;;5051702;28;19920;-60
2023/04/07 14:50:57;;;;;;;;;;;;;;;;;;5034009;28;19916;-60
2023/04/07 14:53:23;;;;;;;;;;;;;;;;;;5051689;28;19990;-61
2023/04/07 14:55:49;;;;;;;;;;;;;;;;;;5052293;28;19920;-59
2023/04/07 14:58:15;;;;;;;;;;;;;;;;;;5051860;28;20342;-59
2023/04/07 15:00:41;;;;;;;;;;;;;;;;;;5050895;28;19974;-60
2023/04/07 15:03:07;;;;;;;;;;;;;;;;;;5051901;28;19917;-60
2023/04/07 15:05:33;;;;;;;;;;;;;;;;;;5051141;28;19920;-61
2023/04/07 15:07:59;;;;;;;;;;;;;;;;;;5049942;28;19978;-60
2023/04/07 15:10:25;;;;;;;;;;;;;;;;;;5051595;28;19921;-61
2023/04/07 15:12:51;;;;;;;;;;;;;;;;;;5051555;28;20003;-60
2023/04/07 15:15:17;;;;;;;;;;;;;;;;;;5051153;28;20011;-60
2023/04/07 15:17:43;;;;;;;;;;;;;;;;;;5051282;28;19970;-60
2023/04/07 15:20:09;;;;;;;;;;;;;;;;;;5051641;28;19917;-60
2023/04/07 15:22:35;;;;;;;;;;;;;;;;;;5050514;28;19920;-60
2023/04/07 15:25:02;;;;;;;;;;;;;;;;;;5051394;28;19916;-60
2023/04/07 15:27:28;;;;;;;;;;;;;;;;;;5051485;28;19917;-61
2023/04/07 15:29:54;;;;;;;;;;;;;;;;;;5050667;28;19921;-60
2023/04/07 15:32:20;;;;;;;;;;;;;;;;;;5051093;28;19923;-60
2023/04/07 15:34:46;;;;;;;;;;;;;;;;;;5051339;28;19917;-60
2023/04/07 15:37:17;;;;;;;;;;;;;;;;;;5051308;28;19920;-60
2023/04/07 15:39:43;;;;;;;;;;;;;;;;;;5050627;28;20358;-60
2023/04/07 15:42:11;;;;;;;;;;;;;;;;;;5033549;28;19971;-60
2023/04/07 15:44:38;;;;;;;;;;;;;;;;;;5051390;28;19945;-60
2023/04/07 15:47:04;;;;;;;;;;;;;;;;;;5050682;28;19928;-60
2023/04/07 15:49:30;;;;;;;;;;;;;;;;;;5050812;28;19927;-60
2023/04/07 15:51:56;;;;;;;;;;;;;;;;;;5051132;28;19916;-60
2023/04/07 15:54:22;;;;;;;;;;;;;;;;;;5050710;28;19986;-60
2023/04/07 15:56:48;;;;;;;;;;;;;;;;;;5050923;28;20164;-60
2023/04/07 15:59:15;;;;;;;;;;;;;;;;;;5051210;28;19921;-60
2023/04/07 16:01:41;;;;;;;;;;;;;;;;;;5050600;28;19929;-60
2023/04/07 16:04:06;;;;;;;;;;;;;;;;;;5051231;28;19924;-60
2023/04/07 16:06:32;;;;;;;;;;;;;;;;;;5051267;28;19916;-60
2023/04/07 16:08:58;;;;;;;;;;;;;;;;;;5050363;28;19921;-60
2023/04/07 16:11:25;;;;;;;;;;;;;;;;;;5051080;28;19931;-60
2023/04/07 16:13:51;;;;;;;;;;;;;;;;;;5051129;28;19928;-60
2023/04/07 16:16:17;;;;;;;;;;;;;;;;;;5032299;28;20378;-60
2023/04/07 16:18:43;;;;;;;;;;;;;;;;;;5050991;28;20311;-60
2023/04/07 16:21:10;;;;;;;;;;;;;;;;;;5050858;28;20066;-60
2023/04/07 16:23:36;;;;;;;;;;;;;;;;;;5028849;28;19947;-60
2023/04/07 16:26:03;;;;;;;;;;;;;;;;;;5030848;28;19917;-60
2023/04/07 16:28:29;;;;;;;;;;;;;;;;;;5030846;28;19921;-60
2023/04/07 16:30:55;;;;;;;;;;;;;;;;;;5030321;28;19996;-60
2023/04/07 16:33:22;;;;;;;;;;;;;;;;;;5030767;28;19917;-60
2023/04/07 16:35:48;;;;;;;;;;;;;;;;;;5030846;28;20260;-60
2023/04/07 16:38:14;;;;;;;;;;;;;;;;;;5030308;28;19924;-60